ECSPL LFLP-LFLJ
Flight info
| Callsign | ECSPL |
|---|---|
| Flight time | 0h 20m |
| Altitude | 9500 |
| Route | VFR LOCAL |
| Aircraft | PC12/L-VD/A |
Departure
| Time | 2026-05-06 16:29 |
|---|---|
| Airport | Annecy Meythet airport (LFLP) |
Arrival
| Time | 2026-05-06 16:49 |
|---|---|
| Airport | Courchevel Altiport (LFLJ) |
| Time | Latitude | Longitude | Altitude | Speed | Heading |
|---|---|---|---|---|---|
| 2026-05-06 16:25 | 45.93133 | 6.10574 | 1501 ft | 0 kts | 214° |
| 2026-05-06 16:26 | 45.93131 | 6.10572 | 1501 ft | 2 kts | 212° |
| 2026-05-06 16:27 | 45.93117 | 6.10537 | 1502 ft | 8 kts | 297° |
| 2026-05-06 16:27 | 45.93169 | 6.10471 | 1501 ft | 15 kts | 307° |
| 2026-05-06 16:27 | 45.93211 | 6.10397 | 1501 ft | 7 kts | 314° |
| 2026-05-06 16:27 | 45.93254 | 6.10320 | 1502 ft | 7 kts | 304° |
| 2026-05-06 16:28 | 45.93213 | 6.10227 | 1501 ft | 31 kts | 212° |
| 2026-05-06 16:28 | 45.92888 | 6.09851 | 1499 ft | 86 kts | 218° |
| 2026-05-06 16:28 | 45.92368 | 6.09202 | 1673 ft | 106 kts | 221° |
| 2026-05-06 16:28 | 45.91703 | 6.08624 | 1931 ft | 120 kts | 188° |
| 2026-05-06 16:29 | 45.90902 | 6.08903 | 2243 ft | 126 kts | 139° |
| 2026-05-06 16:29 | 45.90485 | 6.10046 | 2536 ft | 141 kts | 106° |
| 2026-05-06 16:29 | 45.90195 | 6.11587 | 2666 ft | 176 kts | 110° |
| 2026-05-06 16:29 | 45.89656 | 6.13283 | 2941 ft | 195 kts | 116° |
| 2026-05-06 16:30 | 45.88829 | 6.14886 | 3320 ft | 206 kts | 138° |
| 2026-05-06 16:30 | 45.88070 | 6.15721 | 3571 ft | 211 kts | 147° |
| 2026-05-06 16:30 | 45.86388 | 6.17287 | 4086 ft | 219 kts | 148° |
| 2026-05-06 16:30 | 45.85131 | 6.18526 | 4452 ft | 224 kts | 146° |
| 2026-05-06 16:31 | 45.83840 | 6.19816 | 4821 ft | 227 kts | 147° |
| 2026-05-06 16:31 | 45.82533 | 6.21113 | 5177 ft | 229 kts | 147° |
| 2026-05-06 16:31 | 45.81215 | 6.22416 | 5536 ft | 231 kts | 148° |
| 2026-05-06 16:31 | 45.79888 | 6.23729 | 5891 ft | 233 kts | 147° |
| 2026-05-06 16:32 | 45.78538 | 6.25065 | 6207 ft | 237 kts | 148° |
| 2026-05-06 16:32 | 45.77170 | 6.26416 | 6510 ft | 239 kts | 148° |
| 2026-05-06 16:32 | 45.75787 | 6.27778 | 6798 ft | 242 kts | 148° |
| 2026-05-06 16:32 | 45.74402 | 6.29149 | 7099 ft | 242 kts | 148° |
| 2026-05-06 16:33 | 45.73017 | 6.30518 | 7384 ft | 242 kts | 148° |
| 2026-05-06 16:33 | 45.71624 | 6.31888 | 7638 ft | 244 kts | 148° |
| 2026-05-06 16:33 | 45.70224 | 6.33266 | 7872 ft | 242 kts | 147° |
| 2026-05-06 16:34 | 45.67440 | 6.36006 | 8404 ft | 245 kts | 148° |
| 2026-05-06 16:34 | 45.66020 | 6.37402 | 8523 ft | 252 kts | 148° |
| 2026-05-06 16:34 | 45.64554 | 6.38843 | 8533 ft | 260 kts | 148° |
| 2026-05-06 16:34 | 45.63048 | 6.40322 | 8536 ft | 264 kts | 148° |
| 2026-05-06 16:35 | 45.61525 | 6.41819 | 8542 ft | 266 kts | 147° |
| 2026-05-06 16:35 | 45.60006 | 6.43314 | 8532 ft | 254 kts | 147° |
| 2026-05-06 16:35 | 45.58701 | 6.44603 | 8434 ft | 207 kts | 148° |
| 2026-05-06 16:35 | 45.57942 | 6.45345 | 8286 ft | 193 kts | 148° |
| 2026-05-06 16:36 | 45.56867 | 6.46393 | 8062 ft | 181 kts | 148° |
| 2026-05-06 16:36 | 45.55855 | 6.47375 | 7824 ft | 174 kts | 148° |
| 2026-05-06 16:36 | 45.54849 | 6.48357 | 7604 ft | 182 kts | 147° |
| 2026-05-06 16:36 | 45.53791 | 6.49396 | 7543 ft | 184 kts | 147° |
| 2026-05-06 16:37 | 45.52805 | 6.50330 | 7562 ft | 154 kts | 153° |
| 2026-05-06 16:37 | 45.51884 | 6.50753 | 7460 ft | 125 kts | 180° |
| 2026-05-06 16:37 | 45.51077 | 6.50643 | 7271 ft | 113 kts | 190° |
| 2026-05-06 16:37 | 45.50296 | 6.50474 | 7242 ft | 111 kts | 189° |
| 2026-05-06 16:38 | 45.49578 | 6.50298 | 7355 ft | 97 kts | 190° |
| 2026-05-06 16:38 | 45.48953 | 6.50108 | 7296 ft | 89 kts | 192° |
| 2026-05-06 16:38 | 45.48353 | 6.49969 | 7126 ft | 90 kts | 184° |
| 2026-05-06 16:38 | 45.47726 | 6.49991 | 7019 ft | 88 kts | 178° |
| 2026-05-06 16:39 | 45.47115 | 6.49979 | 6938 ft | 87 kts | 197° |
| 2026-05-06 16:39 | 45.46600 | 6.49588 | 6855 ft | 87 kts | 211° |
| 2026-05-06 16:39 | 45.46032 | 6.49281 | 6807 ft | 89 kts | 189° |
| 2026-05-06 16:39 | 45.45432 | 6.49407 | 6847 ft | 92 kts | 152° |
| 2026-05-06 16:40 | 45.45011 | 6.50110 | 6900 ft | 96 kts | 121° |
| 2026-05-06 16:40 | 45.44647 | 6.50863 | 6856 ft | 92 kts | 133° |
| 2026-05-06 16:40 | 45.44220 | 6.51541 | 6918 ft | 92 kts | 132° |
| 2026-05-06 16:40 | 45.43773 | 6.52200 | 6980 ft | 92 kts | 142° |
| 2026-05-06 16:41 | 45.43224 | 6.52672 | 7050 ft | 93 kts | 158° |
| 2026-05-06 16:41 | 45.42620 | 6.53053 | 7064 ft | 96 kts | 158° |
| 2026-05-06 16:41 | 45.41992 | 6.53350 | 7064 ft | 96 kts | 166° |
| 2026-05-06 16:41 | 45.41360 | 6.53613 | 7127 ft | 96 kts | 164° |
| 2026-05-06 16:42 | 45.40716 | 6.53939 | 7160 ft | 100 kts | 160° |
| 2026-05-06 16:42 | 45.40062 | 6.54260 | 7209 ft | 99 kts | 167° |
| 2026-05-06 16:42 | 45.39410 | 6.54487 | 7251 ft | 94 kts | 165° |
| 2026-05-06 16:42 | 45.38821 | 6.54866 | 7292 ft | 96 kts | 147° |
| 2026-05-06 16:43 | 45.38309 | 6.55473 | 7343 ft | 98 kts | 139° |
| 2026-05-06 16:43 | 45.37798 | 6.56149 | 7362 ft | 100 kts | 143° |
| 2026-05-06 16:43 | 45.37292 | 6.56827 | 7400 ft | 99 kts | 136° |
| 2026-05-06 16:43 | 45.36840 | 6.57546 | 7436 ft | 97 kts | 121° |
| 2026-05-06 16:44 | 45.36787 | 6.58513 | 7478 ft | 108 kts | 62° |
| 2026-05-06 16:44 | 45.37444 | 6.59049 | 7515 ft | 118 kts | 1° |
| 2026-05-06 16:44 | 45.38267 | 6.58878 | 7562 ft | 121 kts | 347° |
| 2026-05-06 16:44 | 45.39073 | 6.58612 | 7521 ft | 118 kts | 345° |
| 2026-05-06 16:45 | 45.39886 | 6.58354 | 7461 ft | 121 kts | 345° |
| 2026-05-06 16:45 | 45.40699 | 6.58221 | 7357 ft | 117 kts | 9° |
| 2026-05-06 16:45 | 45.41341 | 6.58832 | 7211 ft | 110 kts | 63° |
| 2026-05-06 16:45 | 45.41429 | 6.59815 | 7217 ft | 99 kts | 109° |
| 2026-05-06 16:46 | 45.41101 | 6.60586 | 7340 ft | 87 kts | 134° |
| 2026-05-06 16:46 | 45.40694 | 6.61225 | 7498 ft | 88 kts | 140° |
| 2026-05-06 16:46 | 45.40194 | 6.61797 | 7578 ft | 95 kts | 142° |
| 2026-05-06 16:46 | 45.39707 | 6.62463 | 7603 ft | 99 kts | 127° |
| 2026-05-06 16:47 | 45.39709 | 6.63477 | 7376 ft | 119 kts | 58° |
| 2026-05-06 16:47 | 45.40393 | 6.63973 | 7058 ft | 109 kts | 3° |
| 2026-05-06 16:47 | 45.41148 | 6.63992 | 6585 ft | 105 kts | 0° |
| 2026-05-06 16:47 | 45.41865 | 6.64143 | 6224 ft | 110 kts | 24° |
| 2026-05-06 16:48 | 45.42375 | 6.64854 | 6184 ft | 101 kts | 71° |
| 2026-05-06 16:48 | 45.42258 | 6.65748 | 6195 ft | 94 kts | 136° |
| 2026-05-06 16:48 | 45.41650 | 6.66012 | 6195 ft | 95 kts | 187° |
| 2026-05-06 16:48 | 45.41076 | 6.65661 | 6301 ft | 90 kts | 221° |
| 2026-05-06 16:49 | 45.40719 | 6.64924 | 6339 ft | 92 kts | 236° |
| 2026-05-06 16:49 | 45.40288 | 6.64249 | 6350 ft | 90 kts | 224° |
| 2026-05-06 16:49 | 45.39885 | 6.63681 | 6408 ft | 74 kts | 224° |
| 2026-05-06 16:49 | 45.39681 | 6.63398 | 6593 ft | 10 kts | 224° |
| 2026-05-06 16:50 | 45.39659 | 6.63316 | 6602 ft | 15 kts | 304° |
| 2026-05-06 16:50 | 45.39665 | 6.63305 | 6604 ft | 0 kts | 320° |